Holmes Beach, Florida
Current Conditions -  °F | °C
As of 5:53 AM on Sunday 23 Nov 2014 (Local Time) from KSRQ Reporting Station
Overcast Overcast  
Wind Chill: 23°   Ceiling: 1000
Heat Index: 23°   Visibility: 10mi
Dew Point: 22°   Wind: 14mph
Humidity: 93%   Direction: 130°SE
Pressure: 29.96"   Gusts: NA
Location:  27.5°N, 82.71°W
Report Text: KSRQ 231053Z 13012KT 10SM OVC010 23/22 A2996 RMK AO2 CIG 008V014 SLP143 T02280217
Loading
Personal Weather Stations






























Interactive Weather Map New forecast layout! Learn more

10-Day Weather Forecast

Advertisements
Track Severe Weather on mobile